Vanzant, Kentucky
Current Conditions -  °F | °C
As of 2:56 PM on Sunday 23 Nov 2014 (Local Time) from KOWB Reporting Station
Light Rain Light Rain  
Wind Chill: 57°   Ceiling: 1400
Heat Index: 57°   Visibility: 4mi
Dew Point: 56°   Wind: 16mph
Humidity: 97%   Direction: 150°SSE
Pressure: 29.47"   Gusts: NA
Location:  37.6217°N, 86.5365°W
Report Text: KOWB 232056Z 15014KT 4SM -RA BR BKN014 OVC019 14/13 A2947 RMK AO2 56062 60027 T01380133 P0010 SLP978
Loading
Personal Weather Stations






























Interactive Weather Map New forecast layout! Learn more

10-Day Weather Forecast

Advertisements
Track Severe Weather on mobile